Pagrindinis puslapis
METAR-TAF:

METAR-TAF

Oro uostai :

Bluefields, Nikaragva

platuma: 12-00N, ilguma: 083-46W, Aukštis: 5 m

Dabartinis oras

Ataskaita buvo paskelbta 1 valandą ir 15 minutes, ne 15:00 UTC
Vėjas 4 kt iš Šiaurės
Temperatūra 29°C
Drėgmė 89%
Slėgis 1013 hPa
Matomumas 10 km arba daugiau
Išsisklaidę debesys ne aukštis 1700 ft

METAR: MNBL 171500Z 36004KT 9999 SCT017 29/27 Q1013

Laikas: 10:15 (16:15 UTC)

Prognozė

Ataskaita buvo paskelbta 18 valandos ir 45 minutes, ne 21:30 UTC
Prognozė galioja nuo 17 metu 00 UTC su 17 metu 24 UTC
Vėjas 6 kt nuo kintamojo kryptimis
Matomumas: 6000 m
Išsisklaidę debesys ne aukštis 1700 ft, Liūtiniai kamuoliniai debesys.
Išsisklaidę debesys ne aukštis 7000 ft
Tikimybė 40%
tarp 40 ir 00 UTC
Tapsmas
nuo 17 metu 17 UTC su 17 metu 19 UTC
Matomumas 10 km arba daugiau
Išsisklaidę debesys ne aukštis 2000 ft
Išsisklaidę debesys ne aukštis 7000 ft

TAF: MNBL 162130Z 1700/1724 VRB06KT 6000 RA/-TSRA SCT017CB SCT070 PROB40 4000 RA/TSRA BECMG 1717/1719 9999 SCT020 SCT070

Orai ataskaitas ir orų prognozės (METAR, TAF).

turimą stotys yra geltonos ir raudonos taškus žemėlapyje.

Perkelti pele per norėdami pamatyti stoties vardą.

Tada spustelėkite, norėdami matyti oro stebėjimo ir prognozės.

Norėdami pakeisti žemėlapį: spustelėkite ant žalios mygtukų su juodo kryžiaus žemyn,; žalią mygtuką su brūkšneliu, jei norite nutolinti; arba žalių rodyklių gretimoms žemėlapius.


METAR-TAF: